Terminal Aerodrome Forecast
Issued by NWS Cleveland, OH

Home | Current Version | Previous Version | Graphics & Text | Print | Product List | Glossary Off
Versions: 1 2 3 4 5 6 7 8 9 10 11 12 13 14 15 16 17 18 19

441
FTUS41 KCLE 251619 AAA
TAFERI
TAF AMD
KERI 251619Z 2516/2612 05007KT 6SM -SHRA SCT008 OVC015
      TEMPO 2516/2518 5SM -RA BR BKN008 OVC015
     FM251800 03005KT 6SM -SHRA OVC015
     FM252300 36005KT 5SM -SHRA OVC007
     FM260300 31005KT 2SM BR OVC006=

USA.gov is the U.S. government's official web portal to all federal, state and local government web resources and services.